createdAt,value
2023-05-17T00:02:21.419Z,69.52
2023-05-17T00:04:49.481Z,69.53
2023-05-17T00:07:17.330Z,69.62
2023-05-17T00:09:45.757Z,69.57
2023-05-17T00:12:14.019Z,69.62
2023-05-17T00:14:41.854Z,69.79
2023-05-17T00:17:09.690Z,69.78
2023-05-17T00:19:39.943Z,69.91
2023-05-17T00:22:08.451Z,69.88
2023-05-17T00:24:36.326Z,70.00
2023-05-17T00:27:05.079Z,69.97
2023-05-17T00:29:32.917Z,70.02
2023-05-17T00:32:00.812Z,70.09
2023-05-17T00:34:29.247Z,70.12
2023-05-17T00:36:57.102Z,70.17
2023-05-17T00:39:25.660Z,70.15
2023-05-17T00:41:53.498Z,70.26
2023-05-17T00:44:21.414Z,70.40
2023-05-17T00:46:50.637Z,70.38
2023-05-17T00:49:19.622Z,70.40
2023-05-17T00:51:48.651Z,70.44
2023-05-17T00:54:16.638Z,70.39
2023-05-17T00:56:44.751Z,70.50
2023-05-17T00:59:14.059Z,70.53
2023-05-17T01:01:44.169Z,70.52
2023-05-17T01:04:12.715Z,70.55
2023-05-17T01:06:41.131Z,70.70
2023-05-17T01:09:12.313Z,70.70
2023-05-17T01:11:59.437Z,70.68
2023-05-17T01:15:03.513Z,70.77
2023-05-17T01:17:52.568Z,70.89
2023-05-17T01:20:42.220Z,70.92
2023-05-17T01:23:58.946Z,71.04
2023-05-17T01:26:39.873Z,71.10
2023-05-17T01:29:10.067Z,71.11
2023-05-17T01:31:40.012Z,71.12
2023-05-17T01:34:10.518Z,71.17
2023-05-17T01:36:39.061Z,71.20
2023-05-17T01:39:08.763Z,71.35
2023-05-17T01:41:46.648Z,71.30
2023-05-17T01:44:38.326Z,71.37
2023-05-17T01:47:16.480Z,71.46
2023-05-17T01:49:49.114Z,71.51
2023-05-17T01:52:31.230Z,71.53
2023-05-17T01:55:02.053Z,71.49
2023-05-17T01:57:35.848Z,71.50
2023-05-17T02:00:09.608Z,71.65
2023-05-17T02:02:38.304Z,71.64
2023-05-17T02:05:06.860Z,71.65
2023-05-17T02:07:34.914Z,71.70
2023-05-17T02:10:03.793Z,71.73
2023-05-17T02:12:32.735Z,71.80
2023-05-17T02:15:01.151Z,71.88
2023-05-17T02:17:29.234Z,71.84
2023-05-17T02:19:57.050Z,71.88
2023-05-17T02:22:25.008Z,71.97
2023-05-17T02:24:52.828Z,72.03
2023-05-17T02:27:22.738Z,72.06
2023-05-17T02:29:51.202Z,72.00
2023-05-17T02:32:19.054Z,72.15
2023-05-17T02:34:46.832Z,72.08
2023-05-17T02:37:14.674Z,72.18
2023-05-17T02:39:42.624Z,72.28
2023-05-17T02:42:12.105Z,72.36
2023-05-17T02:44:40.412Z,72.33
2023-05-17T02:47:08.501Z,72.33
2023-05-17T02:49:36.531Z,72.38
2023-05-17T02:52:04.707Z,72.43
2023-05-17T02:54:32.581Z,72.38
2023-05-17T02:57:01.393Z,72.48
2023-05-17T02:59:29.893Z,72.49
2023-05-17T03:01:57.821Z,72.55
2023-05-17T03:04:25.758Z,72.61
2023-05-17T03:06:53.678Z,72.61
2023-05-17T03:09:21.864Z,72.59
2023-05-17T03:11:49.632Z,72.74
2023-05-17T03:14:17.606Z,72.68
2023-05-17T03:16:45.324Z,72.68
2023-05-17T03:19:13.259Z,72.75
2023-05-17T03:21:41.367Z,72.74
2023-05-17T03:24:09.180Z,72.90
2023-05-17T03:26:36.984Z,72.90
2023-05-17T03:29:05.294Z,72.99
2023-05-17T03:31:41.261Z,72.97
2023-05-17T03:34:12.486Z,73.02
2023-05-17T03:36:40.829Z,73.08
2023-05-17T03:39:11.787Z,73.14
2023-05-17T03:41:39.809Z,73.23
2023-05-17T03:44:16.314Z,73.16
2023-05-17T03:46:44.655Z,73.29
2023-05-17T03:49:13.317Z,73.35
2023-05-17T03:51:41.726Z,73.41
2023-05-17T03:54:16.073Z,73.47
2023-05-17T03:56:49.226Z,73.58
2023-05-17T03:59:17.962Z,73.46
2023-05-17T04:01:51.915Z,73.56
2023-05-17T04:04:19.871Z,73.55
2023-05-17T04:06:47.856Z,73.45
2023-05-17T04:09:15.943Z,73.49
2023-05-17T04:11:44.021Z,73.58
2023-05-17T04:14:12.322Z,73.56
2023-05-17T04:16:40.229Z,73.59
2023-05-17T04:19:08.492Z,73.64
2023-05-17T04:21:36.450Z,73.61
2023-05-17T04:24:04.683Z,73.61
2023-05-17T04:26:35.794Z,73.65
2023-05-17T04:29:06.176Z,73.77
2023-05-17T04:31:34.821Z,73.73
2023-05-17T04:34:02.831Z,73.77
2023-05-17T04:36:31.263Z,73.85
2023-05-17T04:38:59.634Z,73.82
2023-05-17T04:41:28.068Z,73.85
2023-05-17T04:43:56.008Z,73.97
2023-05-17T04:46:23.913Z,73.93
2023-05-17T04:48:51.930Z,73.98
2023-05-17T04:51:20.910Z,73.92
2023-05-17T04:53:49.298Z,74.03
2023-05-17T04:56:17.322Z,74.00
2023-05-17T04:58:45.342Z,74.02
2023-05-17T05:01:13.355Z,74.06
2023-05-17T05:03:41.290Z,74.08
2023-05-17T05:06:09.890Z,74.07
2023-05-17T05:08:38.369Z,74.11
2023-05-17T05:11:08.977Z,74.18
2023-05-17T05:13:39.152Z,74.17
2023-05-17T05:16:07.532Z,74.35
2023-05-17T05:18:36.629Z,74.22
2023-05-17T05:21:04.933Z,74.39
2023-05-17T05:23:33.631Z,74.33
2023-05-17T05:26:01.747Z,74.37
2023-05-17T05:28:29.986Z,74.39
2023-05-17T05:30:59.978Z,74.44
2023-05-17T05:33:28.031Z,74.41
2023-05-17T05:35:56.363Z,74.39
2023-05-17T05:38:24.753Z,74.36
2023-05-17T05:40:52.664Z,74.41
2023-05-17T05:43:20.533Z,74.51
2023-05-17T05:45:48.937Z,74.57
2023-05-17T05:48:16.984Z,74.50
2023-05-17T05:50:45.018Z,74.39
2023-05-17T05:53:18.587Z,74.59
2023-05-17T05:56:04.537Z,74.55
2023-05-17T05:58:32.476Z,74.59
2023-05-17T06:01:00.582Z,74.57
2023-05-17T06:03:28.474Z,74.37
2023-05-17T06:05:57.008Z,74.44
2023-05-17T06:08:25.831Z,74.56
2023-05-17T06:10:54.276Z,74.63
2023-05-17T06:13:22.181Z,74.71
2023-05-17T06:15:50.159Z,74.66
2023-05-17T06:18:18.121Z,74.73
2023-05-17T06:20:47.104Z,74.80
2023-05-17T06:23:15.596Z,74.67
2023-05-17T06:25:43.481Z,74.76
2023-05-17T06:28:11.499Z,74.72
2023-05-17T06:30:39.410Z,74.68
2023-05-17T06:33:07.519Z,74.81
2023-05-17T06:35:47.917Z,74.81
2023-05-17T06:38:49.651Z,74.76
2023-05-17T06:41:17.541Z,74.83
2023-05-17T06:43:46.174Z,74.87
2023-05-17T06:46:14.577Z,75.04
2023-05-17T06:48:42.806Z,74.98
2023-05-17T06:51:11.162Z,74.91
2023-05-17T06:53:39.476Z,74.88
2023-05-17T06:56:07.544Z,75.04
2023-05-17T06:58:35.918Z,75.03
2023-05-17T07:01:04.313Z,75.05
2023-05-17T07:03:32.277Z,74.97
2023-05-17T07:06:01.027Z,74.89
2023-05-17T07:08:29.398Z,74.97
2023-05-17T07:10:57.323Z,74.79
2023-05-17T07:13:25.771Z,74.85
2023-05-17T07:15:53.733Z,74.76
2023-05-17T07:18:21.715Z,75.05
2023-05-17T07:20:50.872Z,74.76
2023-05-17T07:23:18.854Z,74.97
2023-05-17T07:25:47.434Z,74.81
2023-05-17T07:28:15.487Z,74.81
2023-05-17T07:30:43.469Z,74.93
2023-05-17T07:33:11.785Z,74.91
2023-05-17T07:35:40.500Z,74.90
2023-05-17T07:38:10.961Z,74.87
2023-05-17T07:40:39.366Z,74.81
2023-05-17T07:43:07.419Z,74.81
2023-05-17T07:45:35.564Z,75.05
2023-05-17T07:48:03.684Z,74.99
2023-05-17T07:50:33.366Z,74.81
2023-05-17T07:53:01.273Z,74.87
2023-05-17T07:55:29.901Z,74.88
2023-05-17T07:57:58.085Z,74.75
2023-05-17T08:04:56.634Z,75.06
2023-05-17T08:16:14.155Z,74.89
2023-05-17T08:20:37.352Z,74.93
2023-05-17T08:31:50.721Z,75.21
2023-05-17T08:38:37.827Z,75.20
2023-05-17T08:59:00.319Z,75.15
2023-05-17T09:21:19.060Z,75.40
2023-05-17T09:46:21.054Z,75.58
2023-05-17T09:57:37.300Z,75.90
2023-05-17T10:17:57.483Z,76.00
2023-05-17T10:24:51.646Z,75.57
2023-05-17T10:40:36.863Z,76.04
2023-05-17T10:56:27.336Z,75.92
2023-05-17T11:16:05.062Z,75.47
2023-05-17T11:40:42.241Z,75.67
2023-05-17T11:47:33.193Z,75.53
2023-05-17T12:03:26.025Z,75.69
2023-05-17T12:23:41.294Z,75.84
2023-05-17T12:35:04.250Z,75.94
2023-05-17T12:54:56.374Z,76.06
2023-05-17T13:01:46.437Z,76.12
2023-05-17T13:21:39.885Z,76.33
2023-05-17T13:48:55.713Z,76.39
2023-05-17T15:31:12.228Z,77.23
2023-05-17T15:33:42.719Z,77.16
2023-05-17T15:36:13.010Z,77.12
2023-05-17T15:38:41.451Z,77.32
2023-05-17T15:41:16.118Z,77.24
2023-05-17T15:43:44.107Z,77.17
2023-05-17T15:46:12.734Z,77.17
2023-05-17T15:48:40.695Z,77.21
2023-05-17T15:51:08.825Z,77.21
2023-05-17T15:53:37.387Z,77.29
2023-05-17T15:56:05.430Z,77.38
2023-05-17T15:58:39.192Z,77.25
2023-05-17T16:01:07.573Z,77.39
2023-05-17T16:03:35.431Z,77.49
2023-05-17T16:06:04.582Z,77.34
2023-05-17T16:08:40.682Z,77.23
2023-05-17T16:11:10.156Z,77.48
2023-05-17T16:13:38.082Z,77.42
2023-05-17T16:16:06.648Z,77.42
2023-05-17T16:18:34.763Z,77.44
2023-05-17T16:21:04.394Z,77.50
2023-05-17T16:23:32.866Z,77.65
2023-05-17T16:26:01.008Z,77.51
2023-05-17T16:28:29.220Z,77.49
2023-05-17T16:30:57.945Z,77.51
2023-05-17T16:33:26.932Z,77.57
2023-05-17T16:35:55.059Z,77.58
2023-05-17T16:38:26.062Z,77.56
2023-05-17T16:40:56.477Z,77.61
2023-05-17T16:43:24.287Z,77.63
2023-05-17T16:45:53.186Z,77.67
2023-05-17T16:48:21.090Z,77.68
2023-05-17T16:50:49.749Z,77.65
2023-05-17T16:53:18.134Z,77.64
2023-05-17T16:55:46.140Z,77.59
2023-05-17T16:58:14.031Z,77.62
2023-05-17T17:00:42.676Z,77.75
2023-05-17T17:03:11.737Z,77.80
2023-05-17T17:05:42.883Z,77.78
2023-05-17T17:08:11.629Z,77.79
2023-05-17T17:10:39.807Z,77.76
2023-05-17T17:13:07.720Z,77.72
2023-05-17T17:15:36.146Z,77.77
2023-05-17T17:18:04.537Z,77.82
2023-05-17T17:21:09.281Z,77.83
2023-05-17T17:23:44.669Z,77.90
2023-05-17T17:26:12.986Z,78.02
2023-05-17T17:28:41.054Z,77.86
2023-05-17T17:31:09.290Z,77.84
2023-05-17T17:34:17.501Z,77.99
2023-05-17T17:36:46.339Z,77.83
2023-05-17T17:39:17.444Z,77.90
2023-05-17T17:41:45.317Z,77.92
2023-05-17T17:44:13.443Z,77.90
2023-05-17T17:46:42.559Z,78.12
2023-05-17T17:49:10.985Z,77.92
2023-05-17T17:51:38.836Z,78.05
2023-05-17T17:54:09.256Z,78.23
2023-05-17T17:56:37.028Z,78.00
2023-05-17T17:59:05.459Z,78.03
2023-05-17T18:01:38.411Z,78.11
2023-05-17T18:04:06.737Z,78.14
2023-05-17T18:06:34.687Z,78.09
2023-05-17T18:09:05.233Z,78.17
2023-05-17T18:11:33.530Z,78.12
2023-05-17T18:14:02.738Z,78.15
2023-05-17T18:16:31.049Z,78.22
2023-05-17T18:19:01.210Z,78.26
2023-05-17T18:21:29.974Z,78.17
2023-05-17T18:23:57.833Z,78.17
2023-05-17T18:26:26.139Z,78.29
2023-05-17T18:28:54.581Z,78.17
2023-05-17T18:31:26.376Z,78.20
2023-05-17T18:33:56.358Z,78.15
2023-05-17T18:36:27.757Z,78.40
2023-05-17T18:40:02.980Z,78.48
2023-05-17T18:42:31.628Z,78.30
2023-05-17T18:45:02.635Z,78.47
2023-05-17T18:47:30.549Z,78.52
2023-05-17T18:49:58.795Z,78.48
2023-05-17T18:52:26.932Z,78.51
2023-05-17T18:54:55.629Z,78.52
2023-05-17T18:57:28.384Z,78.39
2023-05-17T18:59:56.339Z,78.41
2023-05-17T19:02:24.275Z,78.43
2023-05-17T19:04:52.381Z,78.50
2023-05-17T19:07:20.856Z,78.46
2023-05-17T19:10:20.268Z,78.48
2023-05-17T19:12:48.885Z,78.48
2023-05-17T19:15:22.196Z,78.57
2023-05-17T19:17:54.878Z,78.65
2023-05-17T19:20:42.670Z,78.49
2023-05-17T19:23:15.727Z,78.71
2023-05-17T19:25:51.121Z,78.61
2023-05-17T19:28:19.815Z,78.65
2023-05-17T19:30:48.527Z,78.77
2023-05-17T19:33:22.230Z,78.74
2023-05-17T19:35:50.154Z,78.62
2023-05-17T19:38:18.000Z,78.65
2023-05-17T19:40:46.090Z,78.83
2023-05-17T19:43:14.885Z,78.64
2023-05-17T19:45:43.730Z,78.83
2023-05-17T19:48:12.308Z,78.62
2023-05-17T19:50:40.427Z,78.78
2023-05-17T19:53:08.712Z,78.83
2023-05-17T19:55:41.214Z,78.64
2023-05-17T19:58:12.004Z,78.82
2023-05-17T20:00:43.604Z,78.87
2023-05-17T20:03:11.939Z,78.91
2023-05-17T20:05:40.125Z,78.79
2023-05-17T20:08:10.256Z,78.90
2023-05-17T20:10:40.985Z,78.92
2023-05-17T20:16:48.640Z,78.87
2023-05-17T20:19:16.848Z,78.92
2023-05-17T20:25:23.494Z,79.01
2023-05-17T20:27:52.510Z,79.03
2023-05-17T20:30:20.531Z,78.95
2023-05-17T20:32:48.629Z,79.00
2023-05-17T20:35:16.521Z,79.05
2023-05-17T20:37:44.432Z,79.03
2023-05-17T20:40:16.319Z,78.94
2023-05-17T20:42:46.053Z,79.04
2023-05-17T20:45:17.882Z,79.11
2023-05-17T20:47:48.630Z,79.02
2023-05-17T20:50:18.055Z,79.03
2023-05-17T20:52:47.740Z,79.10
2023-05-17T20:55:16.251Z,79.08
2023-05-17T20:57:44.237Z,79.00
2023-05-17T21:00:12.817Z,79.18
2023-05-17T21:02:40.797Z,79.23
2023-05-17T21:05:12.114Z,79.20
2023-05-17T21:07:40.185Z,79.24
2023-05-17T21:10:09.309Z,79.24
2023-05-17T21:12:38.062Z,79.19
2023-05-17T21:15:16.673Z,79.24
2023-05-17T21:17:45.504Z,79.26
2023-05-17T21:20:14.478Z,79.20
2023-05-17T21:22:45.945Z,79.31
2023-05-17T21:25:16.928Z,79.39
2023-05-17T21:27:44.799Z,79.37
2023-05-17T21:30:12.866Z,79.28
2023-05-17T21:32:41.735Z,79.39
2023-05-17T21:35:10.161Z,79.41
2023-05-17T21:37:42.364Z,79.37
2023-05-17T21:40:10.607Z,79.46
2023-05-17T21:42:38.699Z,79.42
2023-05-17T21:45:07.207Z,79.32
2023-05-17T21:47:37.774Z,79.36
2023-05-17T21:50:07.285Z,79.68
2023-05-17T21:52:35.290Z,79.37
2023-05-17T21:57:56.895Z,79.70
2023-05-17T22:00:29.007Z,79.60
2023-05-17T22:03:00.172Z,79.60
2023-05-17T22:05:28.213Z,79.48
2023-05-17T22:07:56.133Z,79.57
2023-05-17T22:10:27.166Z,79.61
2023-05-17T22:12:55.373Z,79.57
2023-05-17T22:15:23.390Z,79.53
2023-05-17T22:17:52.976Z,79.52
2023-05-17T22:20:24.004Z,79.50
2023-05-17T22:22:52.223Z,79.43
2023-05-17T22:25:23.186Z,79.36
2023-05-17T22:27:51.278Z,79.41
2023-05-17T22:30:19.242Z,79.49
2023-05-17T22:32:47.364Z,79.43
2023-05-17T22:35:18.928Z,79.33
2023-05-17T22:37:46.961Z,79.40
2023-05-17T22:40:15.091Z,79.35
2023-05-17T22:42:43.294Z,79.34
2023-05-17T22:45:15.181Z,79.30
2023-05-17T22:48:26.185Z,79.34
2023-05-17T22:50:54.822Z,79.37
2023-05-17T22:53:22.829Z,79.43
2023-05-17T22:55:50.737Z,79.55
2023-05-17T22:58:19.148Z,79.64
2023-05-17T23:00:55.846Z,79.56
2023-05-17T23:03:23.814Z,79.61
2023-05-17T23:06:12.191Z,79.62
2023-05-17T23:08:42.188Z,79.65
2023-05-17T23:11:10.101Z,79.61
2023-05-17T23:13:38.037Z,79.62
2023-05-17T23:16:08.192Z,79.73
2023-05-17T23:18:36.437Z,79.61
2023-05-17T23:21:07.086Z,79.69
2023-05-17T23:23:39.659Z,79.62
2023-05-17T23:26:10.780Z,79.56
2023-05-17T23:28:41.349Z,79.66
2023-05-17T23:31:11.685Z,79.71
2023-05-17T23:33:42.917Z,79.69
2023-05-17T23:36:11.775Z,79.71
2023-05-17T23:38:39.643Z,79.81
2023-05-17T23:41:07.532Z,79.72
2023-05-17T23:43:35.404Z,79.62
2023-05-17T23:46:06.778Z,79.67
2023-05-17T23:48:35.246Z,79.55
2023-05-17T23:51:03.200Z,79.71
2023-05-17T23:53:31.273Z,79.73
2023-05-17T23:55:59.138Z,79.77
2023-05-17T23:58:27.045Z,79.69
